Time;durP1;ratioP1;P1;durP2;ratioP2;P2;SDS_P1;SDS_P2;PMS_P1;PMS_P2;Temp;Humidity;BMP_temperature;BMP_pressure;BME280_temperature;BME280_humidity;BME280_pressure;Samples;Min_cycle;Max_cycle;Signal;HPM_P1;HPM_P2
2021/06/04 00:00:17;;;;;;;1.02;0.88;;;15.80;77.80;;;;;;5001499;28;96544;-51
2021/06/04 00:02:48;;;;;;;2.63;0.90;;;15.90;78.00;;;;;;5003094;28;96247;-49
2021/06/04 00:05:24;;;;;;;1.42;1.00;;;16.00;77.90;;;;;;5005737;28;95921;-50
2021/06/04 00:07:55;;;;;;;1.95;1.30;;;16.10;77.60;;;;;;5002339;28;95828;-51
2021/06/04 00:10:32;;;;;;;2.10;1.20;;;16.10;77.60;;;;;;5005479;28;95901;-51
2021/06/04 00:13:22;;;;;;;1.55;1.00;;;16.20;77.70;;;;;;5002382;28;97370;-51
2021/06/04 00:16:05;;;;;;;2.20;1.23;;;16.20;77.60;;;;;;5001826;28;96445;-50
2021/06/04 00:18:39;;;;;;;4.18;1.50;;;16.30;77.30;;;;;;5000763;28;97748;-51
2021/06/04 00:21:21;;;;;;;1.13;1.02;;;16.30;77.10;;;;;;5018361;28;96063;-51
2021/06/04 00:23:53;;;;;;;2.75;1.50;;;16.40;77.00;;;;;;5002858;28;96093;-52
2021/06/04 00:26:25;;;;;;;2.25;1.33;;;16.40;76.80;;;;;;5004023;28;95940;-53
2021/06/04 00:28:57;;;;;;;3.25;1.13;;;16.40;76.80;;;;;;5000284;28;95825;-49
2021/06/04 00:31:29;;;;;;;1.17;1.05;;;16.40;76.80;;;;;;5001365;28;96828;-50
2021/06/04 00:34:01;;;;;;;1.65;1.20;;;16.40;76.70;;;;;;5003041;28;95988;-51
2021/06/04 00:36:33;;;;;;;1.13;0.90;;;16.40;76.80;;;;;;5005182;28;96569;-52
2021/06/04 00:39:07;;;;;;;3.42;1.48;;;16.40;76.70;;;;;;5016976;28;98787;-51
2021/06/04 00:41:43;;;;;;;1.40;1.30;;;16.40;76.70;;;;;;5019085;28;96861;-53
2021/06/04 00:44:14;;;;;;;0.90;0.88;;;16.40;76.60;;;;;;5001749;28;95885;-54
2021/06/04 00:46:46;;;;;;;2.30;1.10;;;16.50;76.50;;;;;;4994547;28;98294;-51
2021/06/04 00:49:18;;;;;;;1.02;0.93;;;16.50;76.40;;;;;;4988111;28;97643;-50
2021/06/04 00:52:03;;;;;;;2.30;1.33;;;16.50;76.30;;;;;;4999355;28;95807;-49
2021/06/04 00:54:34;;;;;;;1.52;0.80;;;16.60;76.40;;;;;;5002837;28;100955;-49
2021/06/04 00:57:07;;;;;;;3.08;1.02;;;16.60;76.00;;;;;;5015659;28;98395;-51
2021/06/04 00:59:39;;;;;;;1.00;1.00;;;16.60;74.40;;;;;;5002148;28;97733;-49
2021/06/04 01:02:19;;;;;;;2.05;1.08;;;16.70;76.00;;;;;;5002338;28;96089;-48
2021/06/04 01:04:53;;;;;;;1.48;1.27;;;16.70;75.90;;;;;;5005496;28;96008;-51
2021/06/04 01:07:41;;;;;;;1.55;0.80;;;16.70;75.70;;;;;;5006971;28;96444;-49
2021/06/04 01:10:26;;;;;;;1.15;0.98;;;16.70;75.90;;;;;;5003135;28;96318;-49
2021/06/04 01:13:07;;;;;;;2.65;0.95;;;16.80;75.70;;;;;;5007383;28;95821;-51
2021/06/04 01:16:13;;;;;;;1.33;0.73;;;16.80;75.50;;;;;;4999316;28;98263;-50
2021/06/04 01:19:22;;;;;;;3.03;1.10;;;16.80;75.30;;;;;;5003457;28;96824;-49
2021/06/04 01:21:56;;;;;;;1.60;0.82;;;16.80;75.20;;;;;;4986405;28;97218;-51
2021/06/04 01:24:46;;;;;;;2.28;1.02;;;16.80;75.20;;;;;;5003993;28;95704;-51
2021/06/04 01:27:32;;;;;;;3.45;1.50;;;16.90;75.20;;;;;;5020311;28;95756;-50
2021/06/04 01:30:34;;;;;;;1.77;1.13;;;16.90;74.90;;;;;;4997162;28;96658;-51
2021/06/04 01:33:15;;;;;;;2.33;0.65;;;17.00;75.10;;;;;;5019608;28;102468;-50
2021/06/04 01:35:51;;;;;;;1.25;1.15;;;17.00;74.90;;;;;;5003983;28;96126;-55
2021/06/04 01:38:31;;;;;;;2.40;1.00;;;17.00;74.90;;;;;;5000084;28;95640;-50
2021/06/04 01:41:10;;;;;;;1.77;0.70;;;17.00;74.70;;;;;;5003195;28;97869;-52
2021/06/04 01:43:51;;;;;;;1.15;0.93;;;17.00;74.50;;;;;;5018887;28;95809;-49
2021/06/04 01:46:33;;;;;;;2.83;0.88;;;17.00;74.50;;;;;;4994004;28;95975;-50
2021/06/04 01:49:23;;;;;;;2.45;1.20;;;17.10;74.40;;;;;;5004767;28;95986;-51
2021/06/04 01:52:07;;;;;;;2.83;0.90;;;17.10;74.30;;;;;;5003329;28;95828;-51
2021/06/04 01:54:46;;;;;;;2.42;1.35;;;17.10;74.30;;;;;;5005242;28;96023;-51
2021/06/04 01:57:31;;;;;;;2.47;1.25;;;17.10;74.30;;;;;;5000545;28;95943;-52
2021/06/04 02:00:29;;;;;;;2.85;0.90;;;17.20;74.20;;;;;;4996282;28;96117;-49
2021/06/04 02:03:15;;;;;;;3.13;1.25;;;17.20;74.20;;;;;;4999194;28;105101;-54
2021/06/04 02:05:59;;;;;;;3.55;1.40;;;17.20;74.10;;;;;;5021892;28;96068;-49
2021/06/04 02:08:37;;;;;;;2.70;1.15;;;17.20;74.00;;;;;;5002410;28;95754;-52
2021/06/04 02:11:15;;;;;;;3.08;1.20;;;17.20;74.00;;;;;;5020783;28;95910;-51
2021/06/04 02:13:49;;;;;;;3.90;1.23;;;17.20;73.90;;;;;;5018513;28;96066;-53
2021/06/04 02:16:55;;;;;;;3.80;1.58;;;17.20;73.90;;;;;;5029272;27;96133;-51
2021/06/04 02:20:00;;;;;;;8.02;1.75;;;17.20;73.90;;;;;;5001436;28;95747;-51
2021/06/04 02:22:52;;;;;;;3.00;1.40;;;17.20;74.00;;;;;;5002551;28;96294;-50
2021/06/04 02:26:10;;;;;;;2.50;1.08;;;17.20;74.10;;;;;;5004869;28;97454;-50
2021/06/04 02:29:08;;;;;;;3.03;1.30;;;17.20;74.10;;;;;;4999944;28;97175;-48
2021/06/04 02:31:45;;;;;;;4.35;1.00;;;17.30;74.30;;;;;;4994256;28;95879;-50
2021/06/04 02:34:55;;;;;;;3.45;1.58;;;17.40;74.30;;;;;;4994868;28;95630;-50
2021/06/04 02:37:48;;;;;;;4.10;1.25;;;17.40;74.20;;;;;;4997692;28;96096;-49
2021/06/04 02:40:29;;;;;;;2.53;1.05;;;17.50;74.40;;;;;;5003527;28;96063;-49
2021/06/04 02:43:10;;;;;;;1.90;0.95;;;17.50;74.40;;;;;;5017316;27;95725;-48
2021/06/04 02:45:59;;;;;;;2.70;1.42;;;17.60;74.50;;;;;;5001263;28;95960;-49
2021/06/04 02:48:33;;;;;;;3.92;1.30;;;17.60;74.50;;;;;;5003046;28;96127;-52
2021/06/04 02:51:12;;;;;;;4.15;1.00;;;17.60;74.60;;;;;;5005569;28;95774;-50
2021/06/04 02:54:00;;;;;;;1.23;1.02;;;17.60;74.70;;;;;;5021220;28;95720;-48
2021/06/04 02:56:31;;;;;;;1.38;0.68;;;17.70;74.70;;;;;;5011357;28;95674;-49
2021/06/04 02:59:20;;;;;;;2.67;1.20;;;17.70;74.70;;;;;;5028842;27;100563;-49
2021/06/04 03:01:57;;;;;;;1.88;0.80;;;17.80;74.80;;;;;;5015628;28;95958;-49
2021/06/04 03:04:31;;;;;;;3.30;1.33;;;17.80;74.80;;;;;;5002555;28;95680;-50
2021/06/04 03:07:08;;;;;;;2.90;1.00;;;17.80;74.80;;;;;;5000978;28;96157;-47
2021/06/04 03:09:44;;;;;;;1.30;1.00;;;17.90;75.00;;;;;;4992688;28;95895;-48
2021/06/04 03:12:20;;;;;;;3.38;1.33;;;18.00;75.20;;;;;;4999503;28;95995;-49
2021/06/04 03:14:56;;;;;;;2.85;0.90;;;18.10;75.40;;;;;;5020279;28;95973;-49
2021/06/04 03:17:34;;;;;;;0.98;0.80;;;18.20;75.40;;;;;;5004326;28;95990;-48
2021/06/04 03:20:12;;;;;;;1.10;0.95;;;18.30;75.30;;;;;;5000403;28;96097;-50
2021/06/04 03:22:44;;;;;;;1.73;0.73;;;18.40;75.10;;;;;;4999921;28;96003;-53
2021/06/04 03:25:39;;;;;;;1.65;0.68;;;18.50;75.00;;;;;;5004649;28;95669;-49
2021/06/04 03:28:12;;;;;;;1.35;1.13;;;18.60;74.80;;;;;;5002261;28;95812;-49
2021/06/04 03:30:49;;;;;;;1.15;0.80;;;18.50;74.60;;;;;;5009565;28;98485;-49
2021/06/04 03:33:26;;;;;;;1.77;0.88;;;18.60;74.50;;;;;;5005895;28;95400;-51
2021/06/04 03:36:10;;;;;;;2.05;0.90;;;18.60;74.50;;;;;;5000995;28;95924;-50
2021/06/04 03:38:41;;;;;;;1.80;0.85;;;18.70;74.70;;;;;;5006053;28;96183;-54
2021/06/04 03:41:17;;;;;;;3.40;1.33;;;18.80;74.60;;;;;;4999216;28;96117;-54
2021/06/04 03:43:49;;;;;;;1.45;1.00;;;18.90;74.50;;;;;;5008482;28;96011;-54
2021/06/04 03:46:24;;;;;;;2.70;0.93;;;19.00;74.40;;;;;;4994355;28;95707;-51
2021/06/04 03:48:55;;;;;;;1.67;1.05;;;19.10;74.20;;;;;;5003875;28;95806;-50
2021/06/04 03:51:34;;;;;;;1.63;1.33;;;19.20;74.10;;;;;;5000399;28;95910;-53
2021/06/04 03:54:07;;;;;;;0.90;0.63;;;19.30;73.90;;;;;;5003291;28;95700;-48
2021/06/04 03:56:38;;;;;;;2.88;1.55;;;19.30;73.70;;;;;;5001405;28;95863;-54
2021/06/04 03:59:08;;;;;;;1.90;0.98;;;19.30;73.50;;;;;;5002161;28;97143;-48
2021/06/04 04:01:49;;;;;;;1.00;0.70;;;19.30;73.40;;;;;;4991822;28;96813;-50
2021/06/04 04:04:20;;;;;;;2.50;0.80;;;19.30;73.30;;;;;;5001441;28;97494;-48
2021/06/04 04:06:51;;;;;;;1.33;1.00;;;19.30;73.20;;;;;;5001574;28;98417;-48
2021/06/04 04:09:21;;;;;;;3.03;1.40;;;19.30;69.90;;;;;;5004088;28;95821;-48
2021/06/04 04:11:53;;;;;;;1.70;1.00;;;19.00;69.20;;;;;;4996966;28;95879;-51
2021/06/04 04:14:26;;;;;;;3.53;1.25;;;18.90;70.10;;;;;;5001273;28;95708;-52
2021/06/04 04:16:57;;;;;;;5.63;1.45;;;18.80;69.70;;;;;;5009145;28;95689;-53
2021/06/04 04:19:28;;;;;;;2.08;1.58;;;18.70;69.80;;;;;;5003895;28;95586;-52
2021/06/04 04:22:00;;;;;;;1.67;1.27;;;18.60;70.10;;;;;;5002846;28;95888;-48
2021/06/04 04:24:36;;;;;;;4.32;1.08;;;18.50;70.20;;;;;;5003590;28;96540;-48
2021/06/04 04:27:09;;;;;;;1.00;0.73;;;18.50;70.10;;;;;;5003352;28;96600;-49
2021/06/04 04:29:40;;;;;;;1.90;1.05;;;18.40;68.70;;;;;;5002650;28;95206;-50
2021/06/04 04:32:16;;;;;;;4.72;1.17;;;18.30;70.30;;;;;;4994801;28;96462;-52
2021/06/04 04:34:47;;;;;;;2.53;1.30;;;18.30;70.40;;;;;;5017258;28;96037;-50
2021/06/04 04:37:19;;;;;;;2.13;0.90;;;18.20;70.50;;;;;;5002886;28;95595;-49
2021/06/04 04:39:52;;;;;;;2.50;1.00;;;18.20;70.60;;;;;;5006229;28;95722;-48
2021/06/04 04:42:24;;;;;;;2.60;0.90;;;18.10;70.60;;;;;;5003437;28;96463;-49
2021/06/04 04:44:55;;;;;;;3.50;1.27;;;18.10;70.80;;;;;;5003377;28;96293;-49
2021/06/04 04:47:27;;;;;;;4.80;1.90;;;18.10;70.80;;;;;;4997603;28;95957;-48
2021/06/04 04:49:57;;;;;;;7.97;1.48;;;18.00;70.80;;;;;;5000193;28;99418;-49
2021/06/04 04:52:29;;;;;;;1.50;0.98;;;18.00;70.80;;;;;;4998548;28;96456;-53
2021/06/04 04:55:01;;;;;;;3.05;1.42;;;18.00;70.90;;;;;;4998196;28;95704;-49
2021/06/04 04:57:30;;;;;;;3.55;1.27;;;17.90;71.00;;;;;;5004475;28;96144;-49
2021/06/04 05:00:01;;;;;;;3.65;1.20;;;17.90;71.20;;;;;;5002359;28;95854;-48
2021/06/04 05:02:31;;;;;;;3.22;1.40;;;17.80;71.20;;;;;;4998293;28;95844;-49
2021/06/04 05:05:01;;;;;;;4.70;1.20;;;17.80;71.30;;;;;;4999133;28;96117;-48
2021/06/04 05:07:31;;;;;;;1.90;1.38;;;17.70;71.40;;;;;;5003123;28;95760;-48
2021/06/04 05:10:00;;;;;;;2.17;1.52;;;17.70;71.80;;;;;;4997955;28;102160;-49
2021/06/04 05:12:30;;;;;;;3.38;1.75;;;17.80;71.70;;;;;;5004497;28;95854;-49
2021/06/04 05:15:04;;;;;;;2.75;1.65;;;17.80;71.60;;;;;;5016690;28;96006;-50
2021/06/04 05:17:35;;;;;;;2.80;1.73;;;17.80;71.60;;;;;;5000775;28;96122;-47
2021/06/04 05:20:07;;;;;;;3.35;1.60;;;17.90;71.60;;;;;;5003530;28;95622;-48
2021/06/04 05:22:40;;;;;;;3.78;1.70;;;17.90;71.50;;;;;;4998998;28;96701;-47
2021/06/04 05:25:14;;;;;;;7.65;2.20;;;17.90;71.60;;;;;;5009616;28;95822;-50
2021/06/04 05:27:46;;;;;;;1.88;1.42;;;17.90;71.80;;;;;;5007824;28;95227;-50
2021/06/04 05:30:25;;;;;;;3.38;2.13;;;17.90;71.90;;;;;;4997293;28;97986;-51
2021/06/04 05:32:56;;;;;;;3.50;1.40;;;17.90;71.90;;;;;;5003820;28;95857;-47
2021/06/04 05:35:29;;;;;;;3.53;1.73;;;18.00;71.80;;;;;;4998626;28;95635;-50
2021/06/04 05:38:01;;;;;;;4.72;1.60;;;18.10;72.00;;;;;;5000052;28;95290;-57
2021/06/04 05:40:39;;;;;;;5.07;1.75;;;18.30;71.90;;;;;;4995597;28;95956;-53
2021/06/04 05:43:14;;;;;;;3.20;1.77;;;18.40;71.00;;;;;;5003162;28;97814;-55
2021/06/04 05:45:48;;;;;;;7.43;2.42;;;18.40;71.20;;;;;;4990829;27;96001;-53
2021/06/04 05:48:20;;;;;;;8.10;2.50;;;18.40;71.30;;;;;;5019302;28;95979;-54
2021/06/04 05:51:01;;;;;;;2.28;1.85;;;18.30;71.60;;;;;;5003366;28;95762;-51
2021/06/04 05:53:35;;;;;;;5.38;2.03;;;18.20;71.80;;;;;;5004364;28;95945;-50
2021/06/04 05:56:08;;;;;;;3.15;1.48;;;18.30;71.60;;;;;;4998007;28;96621;-53
2021/06/04 05:58:40;;;;;;;4.85;1.83;;;18.30;71.40;;;;;;4998192;28;96584;-51
2021/06/04 06:01:13;;;;;;;2.13;1.60;;;18.30;71.40;;;;;;4988534;28;96684;-52
2021/06/04 06:03:44;;;;;;;3.17;1.65;;;18.30;71.30;;;;;;5002991;28;95922;-55
2021/06/04 06:06:16;;;;;;;4.15;2.42;;;18.40;71.40;;;;;;5000217;28;95406;-52
2021/06/04 06:08:47;;;;;;;4.28;1.95;;;18.30;71.20;;;;;;5002920;28;95603;-54
2021/06/04 06:11:22;;;;;;;2.47;1.70;;;18.30;71.30;;;;;;5001732;28;96389;-51
2021/06/04 06:13:59;;;;;;;3.72;1.33;;;18.30;71.30;;;;;;5003132;28;95900;-50
2021/06/04 06:16:30;;;;;;;2.58;1.90;;;18.30;71.20;;;;;;4995467;28;95619;-53
2021/06/04 06:19:01;;;;;;;3.17;1.60;;;18.30;71.20;;;;;;5008498;28;97816;-52
2021/06/04 06:21:33;;;;;;;5.05;2.60;;;18.20;71.10;;;;;;5004975;28;95778;-51
2021/06/04 06:24:05;;;;;;;3.13;1.52;;;18.20;71.10;;;;;;5008870;28;95907;-50
2021/06/04 06:26:37;;;;;;;2.63;1.80;;;18.20;71.10;;;;;;4999729;28;98339;-51
2021/06/04 06:29:10;;;;;;;3.10;1.80;;;18.20;71.50;;;;;;5005173;28;95646;-52
2021/06/04 06:31:48;;;;;;;3.10;2.00;;;18.10;71.60;;;;;;4998524;28;95965;-51
2021/06/04 06:34:19;;;;;;;5.10;2.13;;;18.10;71.60;;;;;;4999869;28;95846;-51
2021/06/04 06:36:51;;;;;;;3.45;2.25;;;18.00;71.60;;;;;;5002032;28;95956;-50
2021/06/04 06:39:27;;;;;;;6.30;2.08;;;18.00;71.60;;;;;;5004262;28;95801;-51
2021/06/04 06:42:01;;;;;;;3.80;1.92;;;17.90;71.20;;;;;;5002991;28;95845;-53
2021/06/04 06:44:32;;;;;;;5.25;1.77;;;17.90;71.70;;;;;;5004837;28;95902;-52
2021/06/04 06:47:04;;;;;;;4.22;1.65;;;17.80;71.80;;;;;;4998761;28;95907;-51
2021/06/04 06:49:36;;;;;;;4.88;1.67;;;17.70;71.80;;;;;;5001875;28;95804;-54
2021/06/04 06:52:09;;;;;;;2.42;1.20;;;17.80;71.80;;;;;;5000417;28;95486;-52
2021/06/04 06:54:41;;;;;;;5.10;2.30;;;17.80;71.80;;;;;;5004239;28;95860;-52
2021/06/04 06:57:13;;;;;;;3.17;2.13;;;17.70;71.30;;;;;;5001764;28;95759;-52
2021/06/04 06:59:43;;;;;;;3.45;1.73;;;17.80;71.70;;;;;;5002700;28;95224;-54
2021/06/04 07:02:14;;;;;;;2.78;2.22;;;17.90;71.70;;;;;;5001645;28;97584;-52
2021/06/04 07:04:44;;;;;;;3.03;2.22;;;17.90;71.60;;;;;;5000235;28;96268;-55
2021/06/04 07:07:16;;;;;;;2.72;1.80;;;18.00;72.30;;;;;;5009618;28;95879;-55
2021/06/04 07:09:47;;;;;;;10.38;2.70;;;18.00;71.60;;;;;;5004797;28;95565;-51
2021/06/04 07:12:17;;;;;;;3.05;1.92;;;18.00;71.60;;;;;;5006480;28;96027;-55
2021/06/04 07:14:51;;;;;;;3.22;1.70;;;18.10;71.70;;;;;;4995388;28;95958;-54
2021/06/04 07:17:26;;;;;;;2.58;1.70;;;18.00;71.60;;;;;;4993757;28;95759;-53
2021/06/04 07:19:59;;;;;;;4.05;2.08;;;18.00;71.60;;;;;;5001317;28;95644;-54
2021/06/04 07:22:33;;;;;;;3.88;2.08;;;18.00;71.60;;;;;;5001535;28;95836;-54
2021/06/04 07:25:09;;;;;;;8.80;2.40;;;18.00;71.70;;;;;;5004500;28;96078;-51
2021/06/04 07:27:39;;;;;;;4.18;2.13;;;18.00;71.80;;;;;;5006403;28;95431;-55
2021/06/04 07:30:12;;;;;;;3.38;1.80;;;17.90;71.90;;;;;;5004350;28;95950;-52
2021/06/04 07:32:44;;;;;;;5.35;2.05;;;18.00;72.20;;;;;;5000149;28;96834;-52
2021/06/04 07:35:17;;;;;;;;;;;18.00;73.00;;;;;;4996903;28;96398;-53
2021/06/04 07:37:48;;;;;;;4.78;2.10;;;18.10;72.40;;;;;;5006828;28;95592;-51
2021/06/04 07:40:23;;;;;;;;;;;18.10;72.50;;;;;;5014807;28;96001;-52
2021/06/04 07:42:55;;;;;;;4.88;1.70;;;18.20;72.40;;;;;;5018918;28;95908;-52
2021/06/04 07:45:31;;;;;;;3.30;1.50;;;18.20;72.40;;;;;;4998934;28;96585;-50
2021/06/04 07:48:02;;;;;;;4.82;2.53;;;18.20;72.30;;;;;;4994864;28;102390;-50
2021/06/04 07:50:34;;;;;;;3.53;2.08;;;18.30;72.30;;;;;;5003941;28;96374;-48
2021/06/04 07:53:05;;;;;;;3.40;2.25;;;18.30;72.80;;;;;;5005159;28;95914;-53
2021/06/04 07:55:35;;;;;;;3.65;1.60;;;18.40;71.90;;;;;;4997483;28;96573;-49
2021/06/04 07:58:05;;;;;;;3.67;2.30;;;18.50;71.60;;;;;;5006085;28;95991;-50
2021/06/04 08:00:38;;;;;;;3.88;2.00;;;18.60;71.50;;;;;;4998269;28;99539;-50
2021/06/04 08:03:19;;;;;;;6.22;2.92;;;18.70;71.30;;;;;;5020606;28;96194;-52
2021/06/04 08:05:52;;;;;;;2.60;1.73;;;18.70;71.20;;;;;;5000470;28;95873;-53
2021/06/04 08:08:25;;;;;;;3.42;2.40;;;18.80;71.10;;;;;;5003378;28;95926;-52
2021/06/04 08:10:56;;;;;;;4.97;1.98;;;18.80;70.50;;;;;;5001722;28;95337;-53
2021/06/04 08:13:27;;;;;;;5.53;2.50;;;18.70;70.40;;;;;;5000768;28;95372;-52
2021/06/04 08:16:10;;;;;;;4.63;2.83;;;18.70;70.40;;;;;;4997604;28;95760;-51
2021/06/04 08:18:42;;;;;;;3.75;2.58;;;18.60;70.50;;;;;;5004654;28;95900;-50
2021/06/04 08:21:20;;;;;;;6.00;3.55;;;18.50;70.50;;;;;;5002565;28;95831;-51
2021/06/04 08:23:51;;;;;;;5.20;3.88;;;18.40;70.60;;;;;;5000113;28;95745;-53
2021/06/04 08:26:26;;;;;;;8.38;5.70;;;18.40;70.70;;;;;;5001513;28;95937;-51
2021/06/04 08:28:58;;;;;;;8.70;5.82;;;18.30;70.90;;;;;;5003617;28;95777;-51
2021/06/04 08:31:29;;;;;;;8.43;6.90;;;18.20;71.00;;;;;;4995853;28;95669;-52
2021/06/04 08:34:01;;;;;;;10.07;6.80;;;18.20;71.30;;;;;;5006205;28;95747;-51
2021/06/04 08:36:36;;;;;;;9.57;7.13;;;18.20;71.40;;;;;;5018072;28;95891;-55
2021/06/04 08:39:18;;;;;;;10.65;8.32;;;18.10;71.50;;;;;;5015196;27;95885;-51
2021/06/04 08:42:06;;;;;;;10.68;8.00;;;18.10;71.50;;;;;;4998470;28;95910;-50
2021/06/04 08:44:58;;;;;;;10.40;8.05;;;18.00;71.70;;;;;;5019506;28;95764;-51
2021/06/04 08:47:34;;;;;;;12.27;8.65;;;18.00;71.70;;;;;;4997579;28;95904;-50
2021/06/04 08:50:44;;;;;;;12.50;9.20;;;17.90;71.90;;;;;;5000678;28;95832;-50
2021/06/04 08:53:29;;;;;;;12.52;8.48;;;17.90;71.90;;;;;;5000543;28;104338;-51
2021/06/04 08:56:05;;;;;;;12.27;9.35;;;17.90;72.10;;;;;;4998579;28;95774;-52
2021/06/04 08:58:49;;;;;;;12.63;8.65;;;17.80;72.10;;;;;;4996675;28;96545;-53
2021/06/04 09:01:23;;;;;;;12.63;8.75;;;17.80;72.30;;;;;;4998637;28;96144;-51
2021/06/04 09:04:15;;;;;;;13.88;9.48;;;17.70;72.30;;;;;;4998492;28;95810;-50
2021/06/04 09:06:58;;;;;;;9.43;7.45;;;17.70;72.30;;;;;;5015371;28;96078;-51
2021/06/04 09:10:16;;;;;;;10.05;7.85;;;17.60;72.30;;;;;;4999729;28;96471;-50
2021/06/04 09:12:50;;;;;;;10.60;8.60;;;17.60;72.30;;;;;;4936338;28;95928;-50
2021/06/04 09:15:30;;;;;;;12.65;8.20;;;17.60;71.40;;;;;;4924688;28;96069;-51
2021/06/04 09:18:21;;;;;;;10.23;7.95;;;17.50;72.40;;;;;;4937583;28;97016;-51
2021/06/04 09:21:02;;;;;;;14.13;8.67;;;17.50;72.40;;;;;;4937795;28;96570;-52
2021/06/04 09:23:39;;;;;;;10.27;7.35;;;17.50;72.50;;;;;;4935436;28;95782;-50
2021/06/04 09:26:17;;;;;;;9.65;7.25;;;17.40;72.40;;;;;;4941975;28;95934;-51
2021/06/04 09:29:08;;;;;;;10.90;7.72;;;17.40;72.50;;;;;;4943472;28;98594;-50
2021/06/04 09:31:52;;;;;;;12.20;7.65;;;17.40;73.20;;;;;;4939507;28;96466;-51
2021/06/04 09:34:26;;;;;;;16.20;8.23;;;17.30;72.60;;;;;;4941109;28;95701;-50
2021/06/04 09:37:24;;;;;;;10.00;7.10;;;17.30;72.80;;;;;;4943289;28;96041;-49
2021/06/04 09:40:30;;;;;;;10.55;7.65;;;17.30;72.90;;;;;;4942628;28;95801;-48
2021/06/04 09:43:10;;;;;;;13.18;8.38;;;17.30;73.00;;;;;;4956331;28;95822;-50
2021/06/04 09:46:05;;;;;;;10.35;7.65;;;17.20;73.10;;;;;;4995381;28;96042;-49
2021/06/04 09:48:52;;;;;;;11.13;8.02;;;17.20;73.10;;;;;;4999428;28;96513;-48
2021/06/04 09:51:37;;;;;;;11.07;7.38;;;17.20;73.30;;;;;;4998825;28;95369;-49
2021/06/04 09:54:35;;;;;;;9.07;7.75;;;17.20;73.50;;;;;;5006330;28;95919;-49
2021/06/04 09:57:14;;;;;;;11.93;8.43;;;17.10;73.50;;;;;;5001927;28;95827;-50
2021/06/04 09:59:45;;;;;;;10.15;6.88;;;17.10;72.40;;;;;;5003483;28;96119;-49
2021/06/04 10:02:30;;;;;;;10.02;7.25;;;17.00;73.50;;;;;;5000039;28;95460;-48
2021/06/04 10:05:26;;;;;;;12.18;7.55;;;17.00;73.60;;;;;;5005718;28;95944;-48
2021/06/04 10:08:06;;;;;;;9.30;6.40;;;17.00;73.60;;;;;;5015523;28;95821;-49
2021/06/04 10:10:38;;;;;;;9.43;6.72;;;16.90;73.70;;;;;;5000533;28;95352;-49
2021/06/04 10:13:35;;;;;;;8.50;5.72;;;16.90;73.70;;;;;;5003348;28;95716;-48
2021/06/04 10:19:35;;;;;;;11.65;7.05;;;16.90;73.80;;;;;;5007446;28;95942;-48
2021/06/04 10:22:07;;;;;;;11.63;6.57;;;16.80;74.10;;;;;;5004981;28;96631;-49
2021/06/04 10:24:46;;;;;;;9.73;7.07;;;16.70;74.30;;;;;;5008861;28;95934;-49
2021/06/04 10:27:28;;;;;;;8.18;5.80;;;16.60;74.30;;;;;;5007986;28;95934;-48
2021/06/04 10:30:11;;;;;;;12.45;7.32;;;16.60;74.40;;;;;;5008185;28;95883;-50
2021/06/04 10:32:53;;;;;;;9.48;6.45;;;16.60;74.50;;;;;;5005436;28;95406;-48
2021/06/04 10:35:51;;;;;;;10.00;6.82;;;16.50;74.70;;;;;;5008260;28;95739;-48
2021/06/04 10:38:34;;;;;;;12.30;6.53;;;16.50;74.70;;;;;;5003397;28;96609;-48
2021/06/04 10:41:16;;;;;;;10.32;6.88;;;16.40;74.60;;;;;;5009555;28;96734;-48
2021/06/04 10:43:56;;;;;;;10.93;6.15;;;16.40;74.80;;;;;;5010716;28;95296;-48
2021/06/04 10:46:31;;;;;;;10.13;5.93;;;16.30;74.90;;;;;;5005961;28;96203;-51
2021/06/04 10:49:06;;;;;;;7.10;5.55;;;16.30;74.90;;;;;;5006419;28;95874;-48
2021/06/04 10:51:57;;;;;;;12.93;6.78;;;16.30;75.10;;;;;;5006790;28;95840;-48
2021/06/04 10:54:54;;;;;;;10.15;6.65;;;16.20;75.10;;;;;;5009612;28;95683;-48
2021/06/04 10:57:48;;;;;;;10.75;7.03;;;16.20;75.10;;;;;;5006072;28;96648;-47
2021/06/04 11:00:22;;;;;;;10.38;6.25;;;16.10;75.30;;;;;;5001161;28;95852;-48
2021/06/04 11:03:23;;;;;;;10.20;6.13;;;16.10;75.30;;;;;;5001923;28;96201;-48
2021/06/04 11:06:20;;;;;;;9.43;6.97;;;16.00;75.30;;;;;;5006774;28;96073;-48
2021/06/04 11:08:56;;;;;;;9.88;6.63;;;16.00;75.40;;;;;;4988352;28;95903;-46
2021/06/04 11:11:48;;;;;;;10.30;7.38;;;16.00;75.40;;;;;;5000970;28;98344;-49
2021/06/04 11:14:33;;;;;;;8.75;5.97;;;16.00;75.50;;;;;;5005026;28;95666;-49
2021/06/04 11:17:40;;;;;;;8.65;6.90;;;15.90;75.50;;;;;;5002345;28;96615;-49
2021/06/04 11:20:16;;;;;;;10.65;6.63;;;15.80;75.60;;;;;;4991986;28;97118;-49
2021/06/04 11:22:58;;;;;;;10.63;6.80;;;15.90;75.90;;;;;;5015841;28;95898;-47
2021/06/04 11:25:39;;;;;;;9.52;6.13;;;16.00;75.90;;;;;;5005431;28;95729;-48
2021/06/04 11:28:15;;;;;;;9.40;5.70;;;16.00;75.50;;;;;;5002681;28;95853;-48
2021/06/04 11:30:54;;;;;;;9.40;6.93;;;16.10;75.30;;;;;;4999207;28;96214;-48
2021/06/04 11:33:31;;;;;;;8.98;6.60;;;16.20;75.20;;;;;;4999484;28;98877;-50
2021/06/04 11:36:14;;;;;;;8.63;6.50;;;16.10;75.00;;;;;;5002264;28;96364;-48
2021/06/04 11:38:57;;;;;;;9.02;6.13;;;16.10;75.10;;;;;;5000359;28;98305;-48
2021/06/04 11:41:52;;;;;;;9.70;6.78;;;16.10;75.10;;;;;;5005456;28;95731;-48
2021/06/04 11:44:42;;;;;;;9.82;6.47;;;16.10;75.20;;;;;;4998090;28;96054;-48
2021/06/04 11:47:13;;;;;;;11.00;7.03;;;16.00;75.20;;;;;;4999094;28;95668;-48
2021/06/04 11:49:53;;;;;;;;;;;16.00;75.10;;;;;;5005221;28;95876;-51
2021/06/04 11:52:39;;;;;;;8.75;6.53;;;16.00;75.10;;;;;;5005935;28;95824;-50
2021/06/04 11:55:26;;;;;;;8.68;6.28;;;15.90;75.00;;;;;;5000747;28;96360;-49
2021/06/04 11:58:02;;;;;;;11.20;6.53;;;16.00;75.10;;;;;;5002346;28;97931;-49
2021/06/04 12:00:42;;;;;;;8.35;6.50;;;15.90;74.30;;;;;;4996321;28;96373;-48
2021/06/04 12:03:17;;;;;;;9.02;6.55;;;15.90;75.00;;;;;;5007767;28;96075;-48
2021/06/04 12:05:51;;;;;;;7.93;5.65;;;15.90;75.00;;;;;;5002612;28;96728;-48
2021/06/04 12:08:30;;;;;;;9.70;6.45;;;15.80;75.00;;;;;;5004197;28;95843;-49
2021/06/04 12:11:25;;;;;;;9.95;6.60;;;15.90;75.10;;;;;;4998337;28;96841;-54
2021/06/04 12:13:58;;;;;;;8.05;6.35;;;15.90;75.10;;;;;;5003093;28;95853;-49
2021/06/04 12:16:32;;;;;;;9.85;6.45;;;15.80;74.90;;;;;;4995224;28;95859;-49
2021/06/04 12:19:22;;;;;;;8.70;6.13;;;15.80;75.00;;;;;;4999172;28;95973;-49
2021/06/04 12:21:59;;;;;;;11.13;7.20;;;15.80;74.90;;;;;;5001159;28;95764;-48
2021/06/04 12:24:35;;;;;;;10.38;6.97;;;15.80;74.90;;;;;;5000548;28;95928;-48
2021/06/04 12:27:12;;;;;;;9.13;6.90;;;15.70;75.60;;;;;;5001294;28;95852;-54
2021/06/04 12:29:45;;;;;;;9.25;6.50;;;15.70;73.40;;;;;;5001155;28;95969;-48
2021/06/04 12:32:26;;;;;;;9.75;7.38;;;15.70;74.90;;;;;;4995444;28;95732;-49
2021/06/04 12:35:02;;;;;;;11.88;7.45;;;15.70;74.90;;;;;;4998964;28;95699;-48
2021/06/04 12:37:40;;;;;;;10.23;6.78;;;15.70;74.80;;;;;;4996646;28;96539;-49
2021/06/04 12:40:32;;;;;;;10.65;7.28;;;15.70;74.90;;;;;;5000684;28;95978;-50
2021/06/04 12:43:09;;;;;;;;;;;15.60;74.70;;;;;;4999973;28;95456;-49
2021/06/04 12:45:56;;;;;;;9.38;6.25;;;15.60;74.70;;;;;;4999589;28;95423;-48
2021/06/04 12:48:33;;;;;;;12.25;7.53;;;15.60;74.70;;;;;;5014375;28;96837;-48
2021/06/04 12:51:09;;;;;;;9.05;6.57;;;15.50;74.70;;;;;;5002952;28;96141;-49
2021/06/04 12:53:43;;;;;;;9.45;6.50;;;15.50;74.70;;;;;;5000303;28;96220;-48
2021/06/04 12:56:19;;;;;;;11.57;7.28;;;15.50;74.60;;;;;;5017224;28;95607;-49
2021/06/04 12:58:54;;;;;;;8.18;6.38;;;15.50;74.70;;;;;;4985694;28;97925;-50
2021/06/04 13:01:30;;;;;;;12.02;7.00;;;15.50;74.70;;;;;;5010184;28;97217;-56
2021/06/04 13:04:20;;;;;;;11.68;6.85;;;15.50;74.60;;;;;;5002350;28;96305;-55
2021/06/04 13:06:53;;;;;;;9.63;7.28;;;15.40;74.60;;;;;;5005295;28;96148;-53
2021/06/04 13:09:25;;;;;;;9.77;6.50;;;15.40;74.60;;;;;;5004335;28;96481;-50
2021/06/04 13:12:02;;;;;;;10.07;7.35;;;15.40;74.60;;;;;;5002529;28;95944;-50
2021/06/04 13:14:44;;;;;;;11.15;6.68;;;15.40;74.60;;;;;;5005063;28;97889;-54
2021/06/04 13:17:30;;;;;;;10.18;6.53;;;15.40;74.60;;;;;;4995904;28;95855;-51
2021/06/04 13:20:20;;;;;;;10.63;7.28;;;15.40;74.60;;;;;;4990817;28;101026;-51
2021/06/04 13:23:08;;;;;;;9.18;6.32;;;15.30;74.50;;;;;;5001081;28;97560;-50
2021/06/04 13:25:42;;;;;;;10.15;6.82;;;15.30;74.50;;;;;;5003634;28;95718;-52
2021/06/04 13:28:16;;;;;;;11.05;6.72;;;15.30;74.60;;;;;;5002412;28;95767;-53
2021/06/04 13:30:58;;;;;;;10.63;6.80;;;15.30;74.60;;;;;;5014748;28;97873;-50
2021/06/04 13:33:37;;;;;;;9.30;6.43;;;15.30;74.60;;;;;;5001492;28;96537;-52
2021/06/04 13:36:09;;;;;;;10.95;6.47;;;15.30;74.60;;;;;;5000484;28;96154;-47
2021/06/04 13:38:47;;;;;;;10.68;6.75;;;15.30;74.70;;;;;;5006515;28;95656;-50
2021/06/04 13:41:40;;;;;;;13.77;6.65;;;15.30;74.50;;;;;;5007150;28;95859;-52
2021/06/04 13:44:13;;;;;;;13.60;7.72;;;15.10;74.60;;;;;;5001207;28;95276;-47
2021/06/04 13:46:56;;;;;;;10.40;7.05;;;15.10;74.80;;;;;;5004217;28;98221;-52